createdAt,value
2023-05-09T00:00:31.027Z,13.40
2023-05-09T00:02:58.117Z,14.10
2023-05-09T00:05:25.177Z,11.77
2023-05-09T00:07:52.257Z,12.35
2023-05-09T00:10:19.251Z,13.82
2023-05-09T00:12:47.370Z,15.98
2023-05-09T00:15:14.522Z,14.52
2023-05-09T00:17:41.911Z,15.65
2023-05-09T00:20:12.238Z,16.08
2023-05-09T00:22:41.061Z,15.82
2023-05-09T00:25:11.916Z,16.80
2023-05-09T00:27:39.119Z,17.55
2023-05-09T00:30:06.840Z,15.48
2023-05-09T00:32:34.052Z,15.73
2023-05-09T00:35:01.185Z,17.13
2023-05-09T00:37:30.642Z,18.08
2023-05-09T00:39:57.628Z,15.80
2023-05-09T00:42:24.689Z,13.93
2023-05-09T00:44:51.725Z,14.77
2023-05-09T00:47:18.715Z,14.60
2023-05-09T00:49:45.778Z,17.08
2023-05-09T00:52:12.793Z,13.55
2023-05-09T00:54:39.948Z,15.60
2023-05-09T00:57:07.179Z,13.23
2023-05-09T00:59:34.187Z,12.75
2023-05-09T01:02:01.412Z,12.68
2023-05-09T01:04:28.988Z,11.65
2023-05-09T01:07:03.013Z,12.50
2023-05-09T01:09:37.254Z,12.73
2023-05-09T01:12:11.423Z,13.20
2023-05-09T01:15:04.438Z,13.77
2023-05-09T01:17:53.692Z,10.48
2023-05-09T01:20:20.659Z,12.90
2023-05-09T01:22:56.598Z,11.88
2023-05-09T01:25:42.836Z,11.77
2023-05-09T01:28:14.818Z,11.07
2023-05-09T01:30:45.964Z,12.82
2023-05-09T01:33:16.573Z,13.18
2023-05-09T01:35:46.124Z,12.77
2023-05-09T01:38:15.816Z,13.20
2023-05-09T01:40:42.851Z,12.27
2023-05-09T01:43:10.296Z,13.38
2023-05-09T01:45:39.319Z,13.48
2023-05-09T01:48:07.401Z,11.48
2023-05-09T01:50:34.436Z,12.95
2023-05-09T01:53:01.583Z,11.63
2023-05-09T01:55:30.851Z,12.80
2023-05-09T01:57:57.955Z,12.52
2023-05-09T02:00:25.503Z,10.95
2023-05-09T02:02:53.765Z,11.45
2023-05-09T02:05:20.949Z,10.25
2023-05-09T02:07:48.046Z,11.07
2023-05-09T02:10:15.066Z,12.23
2023-05-09T02:12:42.109Z,10.57
2023-05-09T02:15:09.926Z,10.73
2023-05-09T02:17:40.714Z,11.38
2023-05-09T02:20:10.009Z,10.82
2023-05-09T02:22:37.300Z,10.07
2023-05-09T02:25:07.422Z,12.00
2023-05-09T02:27:34.688Z,11.10
2023-05-09T02:30:04.185Z,12.50
2023-05-09T02:32:31.771Z,9.98
2023-05-09T02:34:59.217Z,9.52
2023-05-09T02:37:26.322Z,11.05
2023-05-09T02:39:53.301Z,9.70
2023-05-09T02:42:22.661Z,12.65
2023-05-09T02:44:49.762Z,10.73
2023-05-09T02:47:16.837Z,9.95
2023-05-09T02:49:43.826Z,9.90
2023-05-09T02:52:11.929Z,10.23
2023-05-09T02:54:39.036Z,12.60
2023-05-09T02:57:06.020Z,11.68
2023-05-09T02:59:33.366Z,9.35
2023-05-09T03:02:02.453Z,11.75
2023-05-09T03:04:31.700Z,8.95
2023-05-09T03:06:59.602Z,9.68
2023-05-09T03:09:31.578Z,11.57
2023-05-09T03:11:58.545Z,10.00
2023-05-09T03:14:26.084Z,8.45
2023-05-09T03:16:54.827Z,9.43
2023-05-09T03:19:27.328Z,10.52
2023-05-09T03:21:54.480Z,9.05
2023-05-09T03:24:21.863Z,14.95
2023-05-09T03:26:48.917Z,9.77
2023-05-09T03:29:15.960Z,10.13
2023-05-09T03:31:43.045Z,9.50
2023-05-09T03:34:15.126Z,10.38
2023-05-09T03:36:44.032Z,9.02
2023-05-09T03:39:13.189Z,11.32
2023-05-09T03:41:44.305Z,9.80
2023-05-09T03:44:12.455Z,10.05
2023-05-09T03:46:39.592Z,8.70
2023-05-09T03:49:07.100Z,9.40
2023-05-09T03:51:35.181Z,10.43
2023-05-09T03:54:04.133Z,9.13
2023-05-09T03:56:31.171Z,10.55
2023-05-09T03:58:59.828Z,10.77
2023-05-09T04:01:27.689Z,10.00
2023-05-09T04:03:57.881Z,10.35
2023-05-09T04:06:26.051Z,8.98
2023-05-09T04:08:53.158Z,10.23
2023-05-09T04:11:21.958Z,10.27
2023-05-09T04:13:49.648Z,12.52
2023-05-09T04:16:32.215Z,9.35
2023-05-09T04:18:59.458Z,9.38
2023-05-09T04:21:26.624Z,10.20
2023-05-09T04:23:56.932Z,9.90
2023-05-09T04:26:31.526Z,9.55
2023-05-09T04:29:04.309Z,9.73
2023-05-09T04:31:31.779Z,9.13
2023-05-09T04:33:59.871Z,10.10
2023-05-09T04:36:29.062Z,10.27
2023-05-09T04:38:58.100Z,10.40
2023-05-09T04:41:27.759Z,13.30
2023-05-09T04:43:54.771Z,8.63
2023-05-09T04:46:25.635Z,9.25
2023-05-09T04:48:52.966Z,11.23
2023-05-09T04:51:20.757Z,8.65
2023-05-09T04:53:47.802Z,9.23
2023-05-09T04:56:17.490Z,8.40
2023-05-09T04:58:46.166Z,8.80
2023-05-09T05:01:13.253Z,8.35
2023-05-09T05:03:40.735Z,9.38
2023-05-09T05:06:07.890Z,9.02
2023-05-09T05:08:36.077Z,8.48
2023-05-09T05:11:03.251Z,9.85
2023-05-09T05:13:30.315Z,10.00
2023-05-09T05:16:00.511Z,8.45
2023-05-09T05:18:27.573Z,11.13
2023-05-09T05:20:54.908Z,9.40
2023-05-09T05:23:22.354Z,8.80
2023-05-09T05:25:52.875Z,9.85
2023-05-09T05:28:20.051Z,9.15
2023-05-09T05:30:47.529Z,10.00
2023-05-09T05:33:14.652Z,9.15
2023-05-09T05:35:41.782Z,12.05
2023-05-09T05:38:08.858Z,9.10
2023-05-09T05:40:36.196Z,10.15
2023-05-09T05:43:05.070Z,8.82
2023-05-09T05:45:33.830Z,8.73
2023-05-09T05:48:03.526Z,9.43
2023-05-09T05:50:31.981Z,10.60
2023-05-09T05:52:59.598Z,8.32
2023-05-09T05:55:26.824Z,8.68
2023-05-09T05:57:53.914Z,8.48
2023-05-09T06:00:21.052Z,9.73
2023-05-09T06:02:54.938Z,9.75
2023-05-09T06:05:45.325Z,9.93
2023-05-09T06:08:12.621Z,8.65
2023-05-09T06:10:39.594Z,7.05
2023-05-09T06:13:07.028Z,9.52
2023-05-09T06:15:35.457Z,9.02
2023-05-09T06:18:02.533Z,11.60
2023-05-09T06:20:29.506Z,8.18
2023-05-09T06:22:56.475Z,8.30
2023-05-09T06:25:23.480Z,9.00
2023-05-09T06:27:50.769Z,9.60
2023-05-09T06:30:26.290Z,9.57
2023-05-09T06:32:58.256Z,10.38
2023-05-09T06:35:25.413Z,10.90
2023-05-09T06:37:52.483Z,9.65
2023-05-09T06:40:19.760Z,7.68
2023-05-09T06:42:46.815Z,8.20
2023-05-09T06:45:14.998Z,9.00
2023-05-09T06:47:42.158Z,11.18
2023-05-09T06:50:09.438Z,11.45
2023-05-09T06:52:36.441Z,10.30
2023-05-09T06:55:03.972Z,8.27
2023-05-09T06:57:31.089Z,9.07
2023-05-09T06:59:58.156Z,8.65
2023-05-09T07:02:25.358Z,8.60
2023-05-09T07:04:52.358Z,8.07
2023-05-09T07:07:19.670Z,9.63
2023-05-09T07:09:46.854Z,8.07
2023-05-09T07:12:14.328Z,7.03
2023-05-09T07:14:41.963Z,9.77
2023-05-09T07:17:22.226Z,9.65
2023-05-09T07:19:51.384Z,9.57
2023-05-09T07:22:18.445Z,8.85
2023-05-09T07:24:46.522Z,9.05
2023-05-09T07:27:13.741Z,9.90
2023-05-09T07:29:40.756Z,8.30
2023-05-09T07:32:07.944Z,8.98
2023-05-09T07:34:35.779Z,8.38
2023-05-09T07:37:02.733Z,10.23
2023-05-09T07:39:29.783Z,11.95
2023-05-09T07:41:56.809Z,9.15
2023-05-09T07:44:23.812Z,8.27
2023-05-09T07:46:50.893Z,9.65
2023-05-09T07:49:17.897Z,9.02
2023-05-09T07:51:44.884Z,9.45
2023-05-09T07:54:11.982Z,8.95
2023-05-09T07:56:38.974Z,9.75
2023-05-09T07:59:05.947Z,8.48
2023-05-09T08:01:33.021Z,9.20
2023-05-09T08:04:00.397Z,7.78
2023-05-09T08:06:27.456Z,8.93
2023-05-09T08:08:54.387Z,8.73
2023-05-09T08:11:21.471Z,9.02
2023-05-09T08:13:48.503Z,12.15
2023-05-09T08:16:17.689Z,9.52
2023-05-09T08:18:44.913Z,9.18
2023-05-09T08:21:11.979Z,10.23
2023-05-09T08:23:39.010Z,10.27
2023-05-09T08:26:06.017Z,9.80
2023-05-09T08:28:33.210Z,10.68
2023-05-09T08:31:00.207Z,11.20
2023-05-09T08:33:27.467Z,10.38
2023-05-09T08:35:54.514Z,8.70
2023-05-09T08:38:21.526Z,10.52
2023-05-09T08:40:48.545Z,11.82
2023-05-09T08:43:18.200Z,11.07
2023-05-09T08:45:58.148Z,9.85
2023-05-09T08:48:25.372Z,9.52
2023-05-09T08:50:52.408Z,9.15
2023-05-09T08:53:19.498Z,9.88
2023-05-09T08:55:46.535Z,10.75
2023-05-09T08:58:13.684Z,8.63
2023-05-09T09:00:41.378Z,9.50
2023-05-09T09:03:08.475Z,9.52
2023-05-09T09:05:41.907Z,10.30
2023-05-09T09:08:10.013Z,9.85
2023-05-09T09:10:37.504Z,10.63
2023-05-09T09:13:05.092Z,8.65
2023-05-09T09:15:36.490Z,8.95
2023-05-09T09:18:08.047Z,10.10
2023-05-09T09:20:35.805Z,9.65
2023-05-09T09:23:04.779Z,9.55
2023-05-09T09:25:31.790Z,12.50
2023-05-09T09:27:58.921Z,12.63
2023-05-09T09:30:26.720Z,8.68
2023-05-09T09:32:53.781Z,10.93
2023-05-09T09:35:20.962Z,10.45
2023-05-09T09:37:48.193Z,12.57
2023-05-09T09:40:15.478Z,8.70
2023-05-09T09:42:46.120Z,10.15
2023-05-09T09:45:15.142Z,10.85
2023-05-09T09:47:47.008Z,10.93
2023-05-09T09:50:15.848Z,10.43
2023-05-09T09:52:52.938Z,10.23
2023-05-09T09:57:48.271Z,9.48
2023-05-09T10:00:16.542Z,9.55
2023-05-09T10:02:57.322Z,9.18
2023-05-09T10:05:28.976Z,10.38
2023-05-09T10:08:03.823Z,10.65
2023-05-09T10:10:32.082Z,9.95
2023-05-09T10:13:03.031Z,10.95
2023-05-09T10:15:38.520Z,10.63
2023-05-09T10:18:14.688Z,10.02
2023-05-09T10:20:42.221Z,11.50
2023-05-09T10:23:09.209Z,9.23
2023-05-09T10:25:43.954Z,10.02
2023-05-09T10:28:12.207Z,11.38
2023-05-09T10:31:01.869Z,8.70
2023-05-09T10:33:36.822Z,10.90
2023-05-09T10:36:04.098Z,9.52
2023-05-09T10:38:31.301Z,9.38
2023-05-09T10:40:58.346Z,11.05
2023-05-09T10:43:25.419Z,9.00
2023-05-09T10:45:52.713Z,8.27
2023-05-09T10:48:19.816Z,9.35
2023-05-09T10:50:47.152Z,11.68
2023-05-09T10:53:15.360Z,9.73
2023-05-09T10:56:02.085Z,11.57
2023-05-09T10:58:40.831Z,9.38
2023-05-09T11:01:08.058Z,11.32
2023-05-09T11:03:54.781Z,12.73
2023-05-09T11:06:42.853Z,9.80
2023-05-09T11:09:41.669Z,9.82
2023-05-09T11:12:12.268Z,8.52
2023-05-09T11:17:09.677Z,10.63
2023-05-09T11:19:45.767Z,10.23
2023-05-09T11:22:29.300Z,10.35
2023-05-09T11:25:25.246Z,10.02
2023-05-09T11:27:52.413Z,7.57
2023-05-09T11:30:19.985Z,9.02
2023-05-09T11:32:55.881Z,8.93
2023-05-09T11:35:23.508Z,7.78
2023-05-09T11:37:51.344Z,9.52
2023-05-09T11:40:19.413Z,8.55
2023-05-09T11:42:58.467Z,8.43
2023-05-09T11:45:27.978Z,8.93
2023-05-09T11:47:54.988Z,8.82
2023-05-09T11:50:22.114Z,7.68
2023-05-09T11:52:49.213Z,8.05
2023-05-09T11:55:19.354Z,8.65
2023-05-09T11:57:49.061Z,8.55
2023-05-09T12:00:17.696Z,8.65
2023-05-09T12:02:46.071Z,7.60
2023-05-09T12:05:14.755Z,9.10
2023-05-09T12:07:42.306Z,8.43
2023-05-09T12:10:10.437Z,7.43
2023-05-09T12:12:41.805Z,8.57
2023-05-09T12:15:09.306Z,8.32
2023-05-09T12:17:36.445Z,8.30
2023-05-09T12:20:05.696Z,7.80
2023-05-09T12:22:33.064Z,9.95
2023-05-09T12:25:01.788Z,7.90
2023-05-09T12:27:29.495Z,10.23
2023-05-09T12:29:56.479Z,7.85
2023-05-09T12:32:23.589Z,11.15
2023-05-09T12:34:52.062Z,8.98
2023-05-09T12:37:19.607Z,8.35
2023-05-09T12:40:04.269Z,8.80
2023-05-09T12:42:35.045Z,7.50
2023-05-09T12:45:02.633Z,10.57
2023-05-09T12:47:31.885Z,9.30
2023-05-09T12:50:03.080Z,7.68
2023-05-09T12:52:41.686Z,9.13
2023-05-09T12:55:14.449Z,7.85
2023-05-09T12:57:43.013Z,8.55
2023-05-09T13:00:10.479Z,8.52
2023-05-09T13:02:39.164Z,7.78
2023-05-09T13:05:07.056Z,7.53
2023-05-09T13:07:50.917Z,7.07
2023-05-09T13:10:24.018Z,6.80
2023-05-09T13:12:51.501Z,8.40
2023-05-09T13:15:22.705Z,10.85
2023-05-09T13:17:50.749Z,8.25
2023-05-09T13:20:18.526Z,6.35
2023-05-09T13:22:46.033Z,5.70
2023-05-09T13:25:13.071Z,6.20
2023-05-09T13:27:40.088Z,10.68
2023-05-09T13:30:07.817Z,7.45
2023-05-09T13:32:36.739Z,7.65
2023-05-09T13:35:06.848Z,8.70
2023-05-09T13:37:35.591Z,7.43
2023-05-09T13:40:03.080Z,7.38
2023-05-09T13:42:30.067Z,7.18
2023-05-09T13:44:57.092Z,6.93
2023-05-09T13:47:24.154Z,6.30
2023-05-09T13:49:52.262Z,5.57
2023-05-09T13:52:19.639Z,7.22
2023-05-09T13:54:47.319Z,5.95
2023-05-09T13:57:14.481Z,7.18
2023-05-09T13:59:41.703Z,4.68
2023-05-09T14:02:08.806Z,6.18
2023-05-09T14:04:36.168Z,8.02
2023-05-09T14:07:03.255Z,7.80
2023-05-09T14:09:30.229Z,6.50
2023-05-09T14:11:57.556Z,4.63
2023-05-09T14:14:24.927Z,5.03
2023-05-09T14:16:52.229Z,5.50
2023-05-09T14:19:19.279Z,5.82
2023-05-09T14:21:49.116Z,5.50
2023-05-09T14:24:16.591Z,5.57
2023-05-09T14:26:43.926Z,5.63
2023-05-09T14:29:11.043Z,5.30
2023-05-09T14:31:38.365Z,6.10
2023-05-09T14:34:06.246Z,4.88
2023-05-09T14:36:33.254Z,5.88
2023-05-09T14:39:00.296Z,5.82
2023-05-09T14:41:27.567Z,5.10
2023-05-09T14:43:54.565Z,4.88
2023-05-09T14:46:21.727Z,6.57
2023-05-09T14:48:48.740Z,5.00
2023-05-09T14:51:15.749Z,8.35
2023-05-09T14:53:42.782Z,5.22
2023-05-09T14:56:11.602Z,4.57
2023-05-09T14:58:38.711Z,6.20
2023-05-09T15:01:05.815Z,6.35
2023-05-09T15:03:32.856Z,6.57
2023-05-09T15:05:59.900Z,8.25
2023-05-09T15:08:27.163Z,6.75
2023-05-09T15:10:54.219Z,8.65
2023-05-09T15:13:21.782Z,7.72
2023-05-09T15:15:49.016Z,11.73
2023-05-09T15:18:18.473Z,6.85
2023-05-09T15:20:45.582Z,8.63
2023-05-09T15:23:13.214Z,4.82
2023-05-09T15:25:42.957Z,7.55
2023-05-09T15:28:09.937Z,6.85
2023-05-09T15:30:38.936Z,7.68
2023-05-09T15:33:06.449Z,6.93
2023-05-09T15:35:33.627Z,7.72
2023-05-09T15:38:00.611Z,7.30
2023-05-09T15:40:28.325Z,8.52
2023-05-09T15:42:55.314Z,7.07
2023-05-09T15:45:22.335Z,6.35
2023-05-09T15:47:49.332Z,9.80
2023-05-09T15:50:16.707Z,8.52
2023-05-09T15:52:43.964Z,9.88
2023-05-09T15:55:13.013Z,12.27
2023-05-09T15:57:40.144Z,8.38
2023-05-09T16:00:07.671Z,8.95
2023-05-09T16:02:39.741Z,9.57
2023-05-09T16:05:07.082Z,6.95
2023-05-09T16:07:35.650Z,7.43
2023-05-09T16:10:03.241Z,9.50
2023-05-09T16:12:32.902Z,9.70
2023-05-09T16:15:00.197Z,8.02
2023-05-09T16:17:27.421Z,9.75
2023-05-09T16:19:55.226Z,7.88
2023-05-09T16:22:22.709Z,8.95
2023-05-09T16:24:49.656Z,9.73
2023-05-09T16:27:17.305Z,10.77
2023-05-09T16:29:44.326Z,9.77
2023-05-09T16:32:11.393Z,11.07
2023-05-09T16:34:38.508Z,10.15
2023-05-09T16:37:06.280Z,12.60
2023-05-09T16:39:33.296Z,9.60
2023-05-09T16:42:00.602Z,12.35
2023-05-09T16:44:27.645Z,10.05
2023-05-09T16:46:54.889Z,12.00
2023-05-09T16:49:22.138Z,9.65
2023-05-09T16:51:49.175Z,10.23
2023-05-09T16:54:16.170Z,10.25
2023-05-09T16:56:43.302Z,12.73
2023-05-09T16:59:10.244Z,10.95
2023-05-09T17:01:37.803Z,11.32
2023-05-09T17:04:06.918Z,12.32
2023-05-09T17:06:34.369Z,10.48
2023-05-09T17:09:01.408Z,11.60
2023-05-09T17:11:29.185Z,13.60
2023-05-09T17:13:56.209Z,11.02
2023-05-09T17:16:23.242Z,11.73
2023-05-09T17:18:50.378Z,14.85
2023-05-09T17:21:17.382Z,11.45
2023-05-09T17:23:44.575Z,11.35
2023-05-09T17:26:11.586Z,11.43
2023-05-09T17:28:38.567Z,10.93
2023-05-09T17:31:05.698Z,11.30
2023-05-09T17:33:32.751Z,11.57
2023-05-09T17:36:00.185Z,13.05
2023-05-09T17:38:27.194Z,11.18
2023-05-09T17:40:54.277Z,9.60
2023-05-09T17:43:22.330Z,11.25
2023-05-09T17:45:49.376Z,9.75
2023-05-09T17:48:16.468Z,10.98
2023-05-09T17:50:43.948Z,12.15
2023-05-09T17:53:10.960Z,10.82
2023-05-09T17:55:37.953Z,10.63
2023-05-09T17:58:05.032Z,9.70
2023-05-09T18:00:32.192Z,9.57
2023-05-09T18:03:00.775Z,10.07
2023-05-09T18:05:28.059Z,10.98
2023-05-09T18:07:55.325Z,10.00
2023-05-09T18:10:22.329Z,10.23
2023-05-09T18:12:49.657Z,7.32
2023-05-09T18:15:16.693Z,9.38
2023-05-09T18:17:44.199Z,9.63
2023-05-09T18:20:11.648Z,8.65
2023-05-09T18:22:38.611Z,10.30
2023-05-09T18:25:05.981Z,9.27
2023-05-09T18:27:32.948Z,8.88
2023-05-09T18:30:00.031Z,9.98
2023-05-09T18:32:27.126Z,8.18
2023-05-09T18:34:54.205Z,8.50
2023-05-09T18:37:22.834Z,9.23
2023-05-09T18:39:49.934Z,12.52
2023-05-09T18:42:17.049Z,8.45
2023-05-09T18:44:44.336Z,9.52
2023-05-09T18:47:12.114Z,9.73
2023-05-09T18:49:39.417Z,10.02
2023-05-09T18:52:06.575Z,9.40
2023-05-09T18:54:33.692Z,8.52
2023-05-09T18:57:01.680Z,9.27
2023-05-09T18:59:28.890Z,8.02
2023-05-09T19:01:55.981Z,8.30
2023-05-09T19:04:23.138Z,10.43
2023-05-09T19:06:50.315Z,8.25
2023-05-09T19:09:18.139Z,8.77
2023-05-09T19:11:48.480Z,9.05
2023-05-09T19:14:15.803Z,7.40
2023-05-09T19:16:43.200Z,8.85
2023-05-09T19:19:10.309Z,9.75
2023-05-09T19:21:37.606Z,7.35
2023-05-09T19:24:06.762Z,9.80
2023-05-09T19:26:34.647Z,8.73
2023-05-09T19:29:04.155Z,7.55
2023-05-09T19:31:31.417Z,10.68
2023-05-09T19:33:58.663Z,9.02
2023-05-09T19:36:25.789Z,9.70
2023-05-09T19:38:53.159Z,7.00
2023-05-09T19:41:20.363Z,7.38
2023-05-09T19:43:50.809Z,7.43
2023-05-09T19:46:19.324Z,8.20
2023-05-09T19:48:46.545Z,7.95
2023-05-09T19:51:15.788Z,9.70
2023-05-09T19:53:43.305Z,8.55
2023-05-09T19:56:10.934Z,7.00
2023-05-09T19:58:38.057Z,7.72
2023-05-09T20:01:08.217Z,8.55
2023-05-09T20:03:37.173Z,7.03
2023-05-09T20:06:04.487Z,9.10
2023-05-09T20:08:31.846Z,7.13
2023-05-09T20:11:00.200Z,10.40
2023-05-09T20:13:27.798Z,10.45
2023-05-09T20:15:55.344Z,7.38
2023-05-09T20:18:22.549Z,7.10
2023-05-09T20:20:49.964Z,7.13
2023-05-09T20:23:17.197Z,8.07
2023-05-09T20:25:44.336Z,8.70
2023-05-09T20:28:12.313Z,8.32
2023-05-09T20:30:39.426Z,8.82
2023-05-09T20:33:06.593Z,7.80
2023-05-09T20:35:34.041Z,7.10
2023-05-09T20:38:01.368Z,6.75
2023-05-09T20:40:28.784Z,8.32
2023-05-09T20:42:55.839Z,5.68
2023-05-09T20:45:22.989Z,6.30
2023-05-09T20:47:50.124Z,6.18
2023-05-09T20:50:17.525Z,6.70
2023-05-09T20:52:45.150Z,7.45
2023-05-09T20:55:12.529Z,7.68
2023-05-09T20:57:39.642Z,8.65
2023-05-09T21:00:07.700Z,7.18
2023-05-09T21:02:34.966Z,6.93
2023-05-09T21:05:02.035Z,9.57
2023-05-09T21:07:30.682Z,6.45
2023-05-09T21:09:58.239Z,7.78
2023-05-09T21:12:25.222Z,7.57
2023-05-09T21:14:52.420Z,6.25
2023-05-09T21:17:19.678Z,7.72
2023-05-09T21:19:46.672Z,6.72
2023-05-09T21:22:13.852Z,8.30
2023-05-09T21:24:40.950Z,8.02
2023-05-09T21:27:07.967Z,6.63
2023-05-09T21:29:35.122Z,6.78
2023-05-09T21:32:02.163Z,6.75
2023-05-09T21:34:29.151Z,9.23
2023-05-09T21:36:56.182Z,7.20
2023-05-09T21:39:23.193Z,7.35
2023-05-09T21:41:50.177Z,7.05
2023-05-09T21:44:17.275Z,8.30
2023-05-09T21:46:46.470Z,6.47
2023-05-09T21:49:16.742Z,7.05
2023-05-09T21:51:43.862Z,8.93
2023-05-09T21:54:11.139Z,6.53
2023-05-09T21:56:38.210Z,5.88
2023-05-09T21:59:05.241Z,8.23
2023-05-09T22:01:32.254Z,10.25
2023-05-09T22:03:59.402Z,6.85
2023-05-09T22:06:26.483Z,6.43
2023-05-09T22:08:53.527Z,5.72
2023-05-09T22:11:20.621Z,8.50
2023-05-09T22:13:47.618Z,7.53
2023-05-09T22:16:14.733Z,9.40
2023-05-09T22:18:41.775Z,5.28
2023-05-09T22:21:08.815Z,7.07
2023-05-09T22:23:35.788Z,7.32
2023-05-09T22:26:06.468Z,7.05
2023-05-09T22:28:33.513Z,8.25
2023-05-09T22:31:00.558Z,7.03
2023-05-09T22:33:27.965Z,7.20
2023-05-09T22:35:54.941Z,7.85
2023-05-09T22:38:21.986Z,7.28
2023-05-09T22:40:48.930Z,8.20
2023-05-09T22:43:15.993Z,8.55
2023-05-09T22:45:43.883Z,8.30
2023-05-09T22:48:11.015Z,7.43
2023-05-09T22:50:38.113Z,11.02
2023-05-09T22:53:05.106Z,8.38
2023-05-09T22:55:32.201Z,9.13
2023-05-09T22:57:59.194Z,8.88
2023-05-09T23:00:26.197Z,7.65
2023-05-09T23:02:53.252Z,8.20
2023-05-09T23:05:21.366Z,7.05
2023-05-09T23:07:48.549Z,8.63
2023-05-09T23:10:15.854Z,8.13
2023-05-09T23:12:43.114Z,10.02
2023-05-09T23:15:10.509Z,7.85
2023-05-09T23:17:37.511Z,8.35
2023-05-09T23:20:05.098Z,7.60
2023-05-09T23:22:32.302Z,9.60
2023-05-09T23:25:00.893Z,9.40
2023-05-09T23:27:28.346Z,8.02
2023-05-09T23:29:55.490Z,10.30
2023-05-09T23:32:22.597Z,8.65
2023-05-09T23:34:49.573Z,9.40
2023-05-09T23:37:16.947Z,10.93
2023-05-09T23:39:43.976Z,7.78
2023-05-09T23:42:12.447Z,7.80
2023-05-09T23:44:39.393Z,10.55
2023-05-09T23:47:06.465Z,8.02
2023-05-09T23:49:33.495Z,9.82
2023-05-09T23:52:00.485Z,9.20
2023-05-09T23:54:27.530Z,9.05
2023-05-09T23:56:56.692Z,7.80
2023-05-09T23:59:23.760Z,10.68
